createdAt,value
2018-02-18T00:00:04.194Z,6.85
2018-02-18T00:02:33.084Z,6.85
2018-02-18T00:05:01.628Z,6.80
2018-02-18T00:07:30.270Z,6.67
2018-02-18T00:09:58.896Z,6.75
2018-02-18T00:12:27.468Z,6.62
2018-02-18T00:14:57.609Z,6.37
2018-02-18T00:17:26.208Z,6.44
2018-02-18T00:19:54.769Z,6.40
2018-02-18T00:22:23.325Z,6.06
2018-02-18T00:24:52.864Z,6.25
2018-02-18T00:27:21.420Z,6.39
2018-02-18T00:29:50.736Z,6.40
2018-02-18T00:32:19.352Z,6.43
2018-02-18T00:34:47.904Z,6.32
2018-02-18T00:37:17.216Z,6.57
2018-02-18T00:39:45.844Z,6.68
2018-02-18T00:42:14.425Z,6.86
2018-02-18T00:44:42.972Z,7.02
2018-02-18T00:47:11.604Z,7.08
2018-02-18T00:49:40.180Z,7.09
2018-02-18T00:52:08.744Z,7.08
2018-02-18T00:54:37.349Z,7.20
2018-02-18T00:57:05.947Z,7.01
2018-02-18T00:59:35.264Z,6.99
2018-02-18T01:02:04.093Z,6.80
2018-02-18T01:04:32.641Z,6.33
2018-02-18T01:07:01.188Z,6.55
2018-02-18T01:09:29.929Z,6.40
2018-02-18T01:11:58.484Z,6.31
2018-02-18T01:14:27.796Z,6.36
2018-02-18T01:16:57.156Z,6.39
2018-02-18T01:19:25.740Z,6.48
2018-02-18T01:21:54.305Z,6.40
2018-02-18T01:24:23.095Z,6.57
2018-02-18T01:26:51.644Z,6.58
2018-02-18T01:29:20.192Z,6.69
2018-02-18T01:31:49.036Z,6.65
2018-02-18T01:34:17.588Z,6.69
2018-02-18T01:36:46.905Z,6.69
2018-02-18T01:39:15.648Z,6.59
2018-02-18T01:41:44.204Z,6.47
2018-02-18T01:44:12.752Z,6.38
2018-02-18T01:46:41.495Z,6.66
2018-02-18T01:49:10.058Z,6.62
2018-02-18T01:51:38.612Z,6.72
2018-02-18T01:54:07.517Z,6.64
2018-02-18T01:56:36.068Z,6.62
2018-02-18T01:59:05.383Z,6.57
2018-02-18T02:01:34.073Z,6.29
2018-02-18T02:04:02.625Z,6.15
2018-02-18T02:06:31.945Z,6.31
2018-02-18T02:09:00.540Z,6.46
2018-02-18T02:11:29.096Z,6.44
2018-02-18T02:13:58.412Z,6.24
2018-02-18T02:16:27.229Z,6.30
2018-02-18T02:18:55.784Z,6.35
2018-02-18T02:21:24.330Z,6.34
2018-02-18T02:23:53.089Z,6.25
2018-02-18T02:26:21.648Z,6.27
2018-02-18T02:28:50.205Z,6.36
2018-02-18T02:31:19.664Z,6.36
2018-02-18T02:33:48.220Z,6.40
2018-02-18T02:36:16.777Z,6.23
2018-02-18T02:38:45.435Z,6.30
2018-02-18T02:41:13.996Z,6.20
2018-02-18T02:43:42.541Z,6.14
2018-02-18T02:46:11.144Z,6.19
2018-02-18T02:48:39.710Z,6.11
2018-02-18T02:51:08.260Z,5.99
2018-02-18T02:53:38.521Z,6.06
2018-02-18T02:56:07.073Z,5.84
2018-02-18T02:58:36.393Z,5.77
2018-02-18T03:01:05.015Z,5.99
2018-02-18T03:03:33.564Z,6.01
2018-02-18T03:06:02.112Z,5.79
2018-02-18T03:08:30.969Z,5.74
2018-02-18T03:10:59.517Z,5.62
2018-02-18T03:13:28.068Z,5.53
2018-02-18T03:15:56.676Z,5.51
2018-02-18T03:18:25.229Z,5.43
2018-02-18T03:20:53.808Z,5.56
2018-02-18T03:23:22.525Z,5.69
2018-02-18T03:25:51.841Z,5.72
2018-02-18T03:28:20.397Z,5.66
2018-02-18T03:30:49.964Z,5.83
2018-02-18T03:33:18.516Z,5.78
2018-02-18T03:35:47.072Z,5.68
2018-02-18T03:38:16.635Z,5.69
2018-02-18T03:40:45.183Z,6.03
2018-02-18T03:43:13.732Z,5.89
2018-02-18T03:45:43.109Z,6.05
2018-02-18T03:48:11.658Z,5.99
2018-02-18T03:50:40.278Z,5.89
2018-02-18T03:53:09.048Z,5.87
2018-02-18T03:55:37.601Z,6.04
2018-02-18T03:58:06.916Z,6.41
2018-02-18T04:00:35.716Z,6.31
2018-02-18T04:03:04.264Z,6.20
2018-02-18T04:05:33.576Z,6.30
2018-02-18T04:08:02.164Z,6.48
2018-02-18T04:10:30.710Z,6.26
2018-02-18T04:12:59.261Z,6.25
2018-02-18T04:15:27.880Z,6.17
2018-02-18T04:17:57.932Z,6.38
2018-02-18T04:20:26.488Z,6.45
2018-02-18T04:22:55.857Z,6.47
2018-02-18T04:25:24.404Z,6.66
2018-02-18T04:27:52.953Z,6.65
2018-02-18T04:30:22.617Z,6.71
2018-02-18T04:32:51.931Z,6.71
2018-02-18T04:35:20.481Z,7.16
2018-02-18T04:37:49.168Z,7.06
2018-02-18T04:40:17.713Z,6.78
2018-02-18T04:42:47.025Z,6.90
2018-02-18T04:45:16.580Z,7.09
2018-02-18T04:47:45.128Z,7.38
2018-02-18T04:50:13.676Z,7.65
2018-02-18T04:52:42.280Z,7.77
2018-02-18T04:55:11.580Z,7.94
2018-02-18T04:57:40.905Z,7.85
2018-02-18T05:00:09.509Z,7.96
2018-02-18T05:02:38.056Z,7.76
2018-02-18T05:05:07.372Z,7.54
2018-02-18T05:07:35.973Z,7.87
2018-02-18T05:10:04.528Z,7.56
2018-02-18T05:12:33.072Z,7.33
2018-02-18T05:15:01.760Z,7.11
2018-02-18T05:17:30.316Z,7.30
2018-02-18T05:19:58.866Z,7.38
2018-02-18T05:22:27.560Z,7.39
2018-02-18T05:24:56.108Z,7.44
2018-02-18T05:27:25.432Z,7.07
2018-02-18T05:29:55.798Z,7.43
2018-02-18T05:32:25.123Z,7.52
2018-02-18T05:34:53.677Z,7.68
2018-02-18T05:37:22.268Z,7.51
2018-02-18T05:39:50.821Z,7.77
2018-02-18T05:42:19.367Z,7.90
2018-02-18T05:44:48.736Z,7.33
2018-02-18T05:47:17.292Z,7.01
2018-02-18T05:49:45.840Z,7.24
2018-02-18T05:52:15.212Z,7.11
2018-02-18T05:54:43.780Z,7.16
2018-02-18T05:57:12.332Z,6.76
2018-02-18T05:59:40.932Z,6.60
2018-02-18T06:02:09.489Z,6.83
2018-02-18T06:04:38.808Z,7.10
2018-02-18T06:07:07.416Z,7.50
2018-02-18T06:09:35.964Z,7.66
2018-02-18T06:12:04.517Z,7.60
2018-02-18T06:14:34.085Z,8.02
2018-02-18T06:17:02.636Z,8.29
2018-02-18T06:19:31.184Z,8.16
2018-02-18T06:21:59.789Z,8.39
2018-02-18T06:24:28.340Z,8.43
2018-02-18T06:26:56.894Z,8.63
2018-02-18T06:29:25.893Z,8.89
2018-02-18T06:31:54.445Z,8.61
2018-02-18T06:34:22.999Z,8.38
2018-02-18T06:36:52.381Z,8.19
2018-02-18T06:39:20.936Z,8.26
2018-02-18T06:41:49.533Z,8.34
2018-02-18T06:44:18.417Z,8.70
2018-02-18T06:46:46.964Z,8.48
2018-02-18T06:49:15.512Z,8.70
2018-02-18T06:51:44.473Z,8.40
2018-02-18T06:54:13.017Z,8.28
2018-02-18T06:56:41.573Z,8.73
2018-02-18T06:59:10.265Z,8.87
2018-02-18T07:01:39.588Z,9.03
2018-02-18T07:04:08.136Z,8.78
2018-02-18T07:06:36.829Z,8.97
2018-02-18T07:09:05.441Z,9.07
2018-02-18T07:11:33.993Z,9.44
2018-02-18T07:14:02.597Z,9.00
2018-02-18T07:16:31.916Z,9.54
2018-02-18T07:19:00.465Z,9.66
2018-02-18T07:21:30.672Z,9.98
2018-02-18T07:23:59.237Z,10.12
2018-02-18T07:26:27.788Z,10.17
2018-02-18T07:28:56.610Z,10.49
2018-02-18T07:31:25.168Z,10.36
2018-02-18T07:33:53.725Z,11.05
2018-02-18T07:36:23.275Z,11.15
2018-02-18T07:38:51.824Z,11.05
2018-02-18T07:41:20.376Z,10.64
2018-02-18T07:43:49.236Z,11.31
2018-02-18T07:46:17.792Z,11.49
2018-02-18T07:48:46.344Z,11.44
2018-02-18T07:51:15.711Z,11.38
2018-02-18T07:53:44.262Z,10.34
2018-02-18T07:56:12.816Z,10.69
2018-02-18T07:58:42.189Z,11.57
2018-02-18T08:01:10.748Z,11.74
2018-02-18T08:03:40.001Z,12.23
2018-02-18T08:06:09.388Z,11.91
2018-02-18T08:08:38.708Z,12.24
2018-02-18T08:11:08.029Z,12.18
2018-02-18T08:13:36.664Z,12.53
2018-02-18T08:16:05.240Z,11.99
2018-02-18T08:18:33.811Z,12.24
2018-02-18T08:21:02.449Z,12.81
2018-02-18T08:23:31.001Z,13.01
2018-02-18T08:25:59.558Z,12.50
2018-02-18T08:28:29.063Z,12.16
2018-02-18T08:30:57.614Z,12.48
2018-02-18T08:33:26.164Z,11.91
2018-02-18T08:35:55.828Z,12.18
2018-02-18T08:38:24.377Z,11.78
2018-02-18T08:40:53.709Z,11.95
2018-02-18T08:43:22.461Z,12.18
2018-02-18T08:45:51.016Z,11.66
2018-02-18T08:48:19.570Z,12.16
2018-02-18T08:50:48.169Z,12.30
2018-02-18T08:53:16.717Z,12.52
2018-02-18T08:55:45.258Z,12.75
2018-02-18T08:58:14.825Z,12.66
2018-02-18T09:00:43.381Z,12.98
2018-02-18T09:03:11.974Z,13.00
2018-02-18T09:05:40.725Z,12.97
2018-02-18T09:08:10.049Z,13.29
2018-02-18T09:10:38.604Z,13.64
2018-02-18T09:13:08.375Z,13.36
2018-02-18T09:15:36.930Z,13.56
2018-02-18T09:18:05.493Z,13.33
2018-02-18T09:20:35.028Z,13.68
2018-02-18T09:23:03.585Z,12.85
2018-02-18T09:25:32.137Z,13.23
2018-02-18T09:28:00.754Z,13.10
2018-02-18T09:30:29.316Z,13.03
2018-02-18T09:32:58.636Z,13.07
2018-02-18T09:35:27.240Z,12.91
2018-02-18T09:37:55.804Z,13.15
2018-02-18T09:40:24.365Z,12.65
2018-02-18T09:42:53.848Z,13.02
2018-02-18T09:45:23.173Z,12.93
2018-02-18T09:47:52.500Z,12.72
2018-02-18T09:50:22.077Z,12.46
2018-02-18T09:52:50.632Z,12.93
2018-02-18T09:55:19.185Z,13.96
2018-02-18T09:57:47.881Z,14.53
2018-02-18T10:02:50.190Z,14.14
2018-02-18T10:05:18.766Z,13.88
2018-02-18T10:07:47.330Z,13.78
2018-02-18T10:10:16.041Z,13.53
2018-02-18T10:12:44.603Z,13.36
2018-02-18T10:15:13.169Z,13.25
2018-02-18T10:17:41.989Z,13.86
2018-02-18T10:20:10.549Z,14.04
2018-02-18T10:22:39.109Z,13.70
2018-02-18T10:25:08.509Z,14.02
2018-02-18T10:27:37.064Z,14.00
2018-02-18T10:30:05.629Z,15.03
2018-02-18T10:32:34.281Z,15.31
2018-02-18T10:35:02.841Z,15.69
2018-02-18T10:37:32.173Z,14.62
2018-02-18T10:40:00.801Z,14.86
2018-02-18T10:42:29.383Z,14.83
2018-02-18T10:44:57.948Z,14.17
2018-02-18T10:47:26.556Z,15.40
2018-02-18T10:49:55.121Z,14.94
2018-02-18T10:52:23.681Z,15.12
2018-02-18T10:54:52.389Z,14.95
2018-02-18T10:57:20.954Z,15.53
2018-02-18T10:59:49.513Z,15.02
2018-02-18T11:02:18.137Z,14.86
2018-02-18T11:04:46.700Z,14.37
2018-02-18T11:07:15.264Z,15.03
2018-02-18T11:09:44.153Z,14.99
2018-02-18T11:12:12.721Z,15.68
2018-02-18T11:14:41.332Z,15.97
2018-02-18T11:17:09.950Z,15.69
2018-02-18T11:19:39.277Z,15.40
2018-02-18T11:22:07.840Z,15.72
2018-02-18T11:24:37.210Z,15.71
2018-02-18T11:27:05.774Z,15.59
2018-02-18T11:29:34.345Z,15.24
2018-02-18T11:32:02.950Z,15.77
2018-02-18T11:34:31.519Z,15.59
2018-02-18T11:37:00.076Z,15.32
2018-02-18T11:39:29.007Z,15.59
2018-02-18T11:41:57.672Z,15.56
2018-02-18T11:44:26.249Z,15.39
2018-02-18T11:46:55.207Z,15.88
2018-02-18T11:49:23.780Z,15.57
2018-02-18T11:51:53.142Z,15.59
2018-02-18T11:54:21.938Z,15.60
2018-02-18T11:56:50.526Z,15.80
2018-02-18T11:59:19.097Z,15.85
2018-02-18T12:01:47.800Z,15.76
2018-02-18T12:04:16.348Z,16.47
2018-02-18T12:06:44.897Z,16.38
2018-02-18T12:09:14.373Z,15.83
2018-02-18T12:11:42.957Z,15.68
2018-02-18T12:14:11.520Z,15.79
2018-02-18T12:16:40.304Z,16.08
2018-02-18T12:19:08.857Z,15.82
2018-02-18T12:21:37.441Z,16.09
2018-02-18T12:24:06.141Z,16.17
2018-02-18T12:26:34.704Z,16.54
2018-02-18T12:29:03.269Z,16.31
2018-02-18T12:31:32.653Z,15.22
2018-02-18T12:34:01.217Z,15.19
2018-02-18T12:36:30.533Z,15.55
2018-02-18T12:38:59.138Z,15.78
2018-02-18T12:41:35.052Z,16.18
2018-02-18T12:44:03.836Z,16.13
2018-02-18T12:46:32.392Z,16.20
2018-02-18T12:49:00.948Z,16.61
2018-02-18T12:51:30.518Z,16.73
2018-02-18T12:53:59.120Z,16.04
2018-02-18T12:56:27.693Z,15.81
2018-02-18T12:58:56.385Z,16.37
2018-02-18T13:01:24.962Z,16.33
2018-02-18T13:03:53.535Z,16.03
2018-02-18T13:06:22.148Z,15.83
2018-02-18T13:08:50.708Z,15.50
2018-02-18T13:11:19.272Z,15.87
2018-02-18T13:13:47.889Z,16.30
2018-02-18T13:16:16.466Z,15.43
2018-02-18T13:18:45.032Z,15.49
2018-02-18T13:21:13.826Z,14.42
2018-02-18T13:23:42.377Z,15.13
2018-02-18T13:26:10.929Z,15.03
2018-02-18T13:28:40.697Z,15.04
2018-02-18T13:31:09.252Z,15.26
2018-02-18T13:33:37.812Z,15.45
2018-02-18T13:36:07.272Z,15.53
2018-02-18T13:38:35.828Z,15.34
2018-02-18T13:41:04.396Z,15.75
2018-02-18T13:43:33.014Z,15.44
2018-02-18T13:46:01.568Z,14.82
2018-02-18T13:48:30.440Z,15.17
2018-02-18T13:50:59.962Z,15.46
2018-02-18T13:53:28.521Z,15.30
2018-02-18T13:55:57.964Z,15.15
2018-02-18T13:58:26.977Z,15.83
2018-02-18T14:00:55.525Z,15.50
2018-02-18T14:03:24.082Z,15.42
2018-02-18T14:05:53.461Z,16.21
2018-02-18T14:08:22.030Z,15.85
2018-02-18T14:10:50.585Z,16.07
2018-02-18T14:13:19.469Z,15.74
2018-02-18T14:15:48.030Z,16.09
2018-02-18T14:18:17.417Z,15.55
2018-02-18T14:20:46.280Z,15.31
2018-02-18T14:23:14.832Z,15.65
2018-02-18T14:25:43.390Z,16.03
2018-02-18T14:28:12.757Z,15.27
2018-02-18T14:30:41.319Z,15.80
2018-02-18T14:33:09.881Z,14.99
2018-02-18T14:35:39.560Z,15.36
2018-02-18T14:38:08.876Z,14.66
2018-02-18T14:40:38.385Z,14.77
2018-02-18T14:43:24.550Z,14.06
2018-02-18T14:46:10.857Z,14.52
2018-02-18T14:48:57.865Z,14.26
2018-02-18T14:51:44.135Z,14.12
2018-02-18T14:54:30.269Z,13.55
2018-02-18T14:57:17.319Z,14.02
2018-02-18T14:59:45.885Z,13.80
2018-02-18T15:02:14.445Z,13.60
2018-02-18T15:04:43.049Z,13.25
2018-02-18T15:07:11.634Z,13.29
2018-02-18T15:09:40.961Z,13.38
2018-02-18T15:12:09.662Z,13.29
2018-02-18T15:14:38.221Z,13.30
2018-02-18T15:17:06.774Z,13.21
2018-02-18T15:19:36.141Z,13.11
2018-02-18T15:22:04.721Z,13.33
2018-02-18T15:24:33.277Z,13.15
2018-02-18T15:27:02.189Z,13.15
2018-02-18T15:29:30.746Z,12.99
2018-02-18T15:31:59.305Z,13.09
2018-02-18T15:34:28.988Z,13.19
2018-02-18T15:36:57.549Z,12.99
2018-02-18T15:39:26.144Z,13.04
2018-02-18T15:41:54.748Z,12.89
2018-02-18T15:44:23.304Z,12.99
2018-02-18T15:46:51.866Z,12.96
2018-02-18T15:49:20.613Z,13.05
2018-02-18T15:51:49.934Z,13.00
2018-02-18T15:54:18.485Z,12.99
2018-02-18T15:56:48.057Z,12.95
2018-02-18T15:59:16.617Z,12.74
2018-02-18T16:01:45.176Z,12.75
2018-02-18T16:04:13.776Z,12.62
2018-02-18T16:06:42.337Z,12.43
2018-02-18T16:09:10.905Z,12.30
2018-02-18T16:11:39.524Z,12.06
2018-02-18T16:14:08.076Z,12.10
2018-02-18T16:16:36.688Z,12.10
2018-02-18T16:19:05.293Z,12.26
2018-02-18T16:21:33.854Z,12.14
2018-02-18T16:24:02.413Z,12.12
2018-02-18T16:26:31.220Z,12.09
2018-02-18T16:28:59.785Z,12.15
2018-02-18T16:31:28.349Z,12.21
2018-02-18T16:33:56.961Z,12.09
2018-02-18T16:36:25.521Z,12.01
2018-02-18T16:38:54.850Z,11.89
2018-02-18T16:41:23.457Z,11.79
2018-02-18T16:43:52.032Z,11.65
2018-02-18T16:46:20.601Z,11.68
2018-02-18T16:48:49.313Z,11.72
2018-02-18T16:51:17.885Z,11.62
2018-02-18T16:53:47.209Z,11.50
2018-02-18T16:56:15.820Z,11.39
2018-02-18T16:58:45.146Z,11.39
2018-02-18T17:01:13.709Z,11.43
2018-02-18T17:03:42.313Z,11.19
2018-02-18T17:06:10.874Z,11.06
2018-02-18T17:08:39.437Z,10.96
2018-02-18T17:11:08.820Z,11.10
2018-02-18T17:13:37.392Z,11.23
2018-02-18T17:16:06.721Z,11.05
2018-02-18T17:18:36.207Z,10.99
2018-02-18T17:21:05.592Z,11.25
2018-02-18T17:23:34.156Z,11.08
2018-02-18T17:26:02.972Z,10.84
2018-02-18T17:28:31.538Z,10.61
2018-02-18T17:31:00.097Z,10.74
2018-02-18T17:33:28.800Z,10.96
2018-02-18T17:35:57.368Z,11.06
2018-02-18T17:38:25.928Z,11.17
2018-02-18T17:40:55.310Z,11.22
2018-02-18T17:43:23.876Z,10.87
2018-02-18T17:45:52.469Z,11.01
2018-02-18T17:48:21.345Z,11.26
2018-02-18T17:50:49.909Z,11.35
2018-02-18T17:53:18.497Z,11.42
2018-02-18T17:55:47.109Z,11.30
2018-02-18T17:58:15.680Z,10.86
2018-02-18T18:00:44.237Z,10.87
2018-02-18T18:03:13.717Z,11.13
2018-02-18T18:05:42.282Z,11.32
2018-02-18T18:08:11.612Z,11.26
2018-02-18T18:10:40.225Z,11.20
2018-02-18T18:13:08.785Z,11.37
2018-02-18T18:15:37.346Z,11.36
2018-02-18T18:18:06.907Z,11.43
2018-02-18T18:20:35.471Z,11.37
2018-02-18T18:23:04.037Z,11.21
2018-02-18T18:25:32.859Z,11.18
2018-02-18T18:28:01.426Z,10.85
2018-02-18T18:30:29.986Z,10.76
2018-02-18T18:32:58.663Z,10.99
2018-02-18T18:35:27.993Z,11.09
2018-02-18T18:37:56.557Z,11.15
2018-02-18T18:40:25.182Z,10.91
2018-02-18T18:42:53.745Z,10.95
2018-02-18T18:45:22.315Z,10.90
2018-02-18T18:47:51.137Z,10.97
2018-02-18T18:50:19.700Z,10.98
2018-02-18T18:52:48.257Z,11.08
2018-02-18T18:55:17.630Z,10.86
2018-02-18T18:57:46.196Z,11.07
2018-02-18T19:00:14.763Z,11.13
2018-02-18T19:02:43.369Z,10.76
2018-02-18T19:05:11.937Z,10.14
2018-02-18T19:07:40.501Z,10.22
2018-02-18T19:10:09.109Z,10.55
2018-02-18T19:12:37.677Z,10.06
2018-02-18T19:15:06.240Z,10.14
2018-02-18T19:17:34.851Z,9.92
2018-02-18T19:20:03.405Z,9.80
2018-02-18T19:22:31.961Z,9.61
2018-02-18T19:25:01.473Z,9.96
2018-02-18T19:27:30.809Z,10.13
2018-02-18T19:29:59.366Z,10.13
2018-02-18T19:32:28.918Z,10.19
2018-02-18T19:34:57.513Z,10.22
2018-02-18T19:37:26.087Z,10.47
2018-02-18T19:39:54.822Z,10.53
2018-02-18T19:42:24.201Z,9.97
2018-02-18T19:44:53.544Z,10.05
2018-02-18T19:47:22.169Z,10.39
2018-02-18T19:49:50.763Z,10.58
2018-02-18T19:52:19.335Z,10.65
2018-02-18T19:54:47.941Z,10.47
2018-02-18T19:57:17.277Z,10.52
2018-02-18T19:59:45.840Z,10.39
2018-02-18T20:02:15.228Z,10.36
2018-02-18T20:04:43.790Z,10.47
2018-02-18T20:07:12.361Z,10.22
2018-02-18T20:09:41.117Z,10.49
2018-02-18T20:12:09.681Z,10.51
2018-02-18T20:14:38.245Z,10.50
2018-02-18T20:17:07.173Z,10.24
2018-02-18T20:19:35.755Z,10.50
2018-02-18T20:22:04.318Z,10.82
2018-02-18T20:24:32.926Z,10.63
2018-02-18T20:27:01.505Z,10.72
2018-02-18T20:29:30.105Z,10.51
2018-02-18T20:31:58.809Z,10.30
2018-02-18T20:34:28.489Z,10.16
2018-02-18T20:36:57.052Z,10.31
2018-02-18T20:39:25.676Z,10.37
2018-02-18T20:41:54.284Z,10.30
2018-02-18T20:44:23.634Z,10.43
2018-02-18T20:46:52.627Z,10.37
2018-02-18T20:49:21.188Z,10.44
2018-02-18T20:51:49.748Z,10.35
2018-02-18T20:54:18.356Z,10.30
2018-02-18T20:56:46.917Z,9.94
2018-02-18T20:59:15.476Z,9.70
2018-02-18T21:01:44.950Z,9.54
2018-02-18T21:04:13.505Z,9.71
2018-02-18T21:06:42.065Z,10.25
2018-02-18T21:09:11.445Z,9.92
2018-02-18T21:11:40.002Z,9.81
2018-02-18T21:14:08.568Z,10.06
2018-02-18T21:16:37.177Z,10.11
2018-02-18T21:19:05.726Z,9.90
2018-02-18T21:21:34.297Z,10.06
2018-02-18T21:24:03.118Z,10.22
2018-02-18T21:26:31.685Z,10.14
2018-02-18T21:29:00.245Z,10.23
2018-02-18T21:31:28.846Z,10.50
2018-02-18T21:33:57.408Z,10.33
2018-02-18T21:36:25.968Z,10.20
2018-02-18T21:38:54.574Z,10.42
2018-02-18T21:41:23.128Z,10.38
2018-02-18T21:43:51.681Z,10.51
2018-02-18T21:46:20.285Z,10.59
2018-02-18T21:48:48.858Z,10.44
2018-02-18T21:51:17.427Z,10.37
2018-02-18T21:53:46.025Z,10.22
2018-02-18T21:56:14.580Z,10.07
2018-02-18T21:58:43.145Z,10.36
2018-02-18T22:01:11.759Z,10.32
2018-02-18T22:03:40.312Z,10.26
2018-02-18T22:06:08.860Z,9.59
2018-02-18T22:08:38.522Z,9.50
2018-02-18T22:11:07.084Z,9.70
2018-02-18T22:13:35.636Z,9.75
2018-02-18T22:16:04.241Z,9.69
2018-02-18T22:18:33.557Z,9.50
2018-02-18T22:21:02.125Z,9.61
2018-02-18T22:23:31.489Z,9.32
2018-02-18T22:26:00.040Z,9.28
2018-02-18T22:28:28.592Z,9.12
2018-02-18T22:30:59.067Z,9.32
2018-02-18T22:33:27.620Z,9.14
2018-02-18T22:35:56.172Z,9.02
2018-02-18T22:38:25.549Z,8.93
2018-02-18T22:40:54.112Z,9.07
2018-02-18T22:43:22.665Z,9.15
2018-02-18T22:45:51.286Z,9.02
2018-02-18T22:48:19.837Z,8.96
2018-02-18T22:50:48.399Z,9.03
2018-02-18T22:53:18.151Z,9.01
2018-02-18T22:55:46.712Z,9.03
2018-02-18T22:58:15.264Z,8.97
2018-02-18T23:00:45.464Z,8.91
2018-02-18T23:03:14.020Z,8.73
2018-02-18T23:05:48.173Z,8.91
2018-02-18T23:08:16.733Z,8.88
2018-02-18T23:10:45.286Z,8.95
2018-02-18T23:13:13.891Z,9.06
2018-02-18T23:15:42.444Z,9.07
2018-02-18T23:18:11.060Z,9.15
2018-02-18T23:20:57.332Z,9.22
2018-02-18T23:23:25.893Z,9.27
2018-02-18T23:25:55.248Z,9.37
2018-02-18T23:28:24.021Z,9.47
2018-02-18T23:30:52.582Z,9.45
2018-02-18T23:33:21.132Z,9.55
2018-02-18T23:35:50.606Z,9.71
2018-02-18T23:38:19.157Z,9.21
2018-02-18T23:40:47.709Z,9.14
2018-02-18T23:43:17.172Z,9.25
2018-02-18T23:45:45.724Z,9.01
2018-02-18T23:48:14.276Z,8.95
2018-02-18T23:50:42.885Z,9.25
2018-02-18T23:53:11.433Z,9.20
2018-02-18T23:55:39.988Z,9.23
2018-02-18T23:58:08.604Z,9.31
